createdAt,value
2022-08-05T00:01:30.215Z,18.30
2022-08-05T00:04:03.820Z,18.26
2022-08-05T00:06:33.269Z,18.25
2022-08-05T00:09:02.956Z,18.25
2022-08-05T00:11:30.574Z,18.28
2022-08-05T00:14:12.739Z,18.26
2022-08-05T00:16:52.804Z,18.29
2022-08-05T00:19:22.819Z,18.26
2022-08-05T00:21:51.488Z,18.17
2022-08-05T00:24:19.341Z,18.13
2022-08-05T00:26:53.018Z,18.10
2022-08-05T00:29:22.714Z,18.09
2022-08-05T00:32:13.413Z,18.11
2022-08-05T00:35:03.290Z,18.10
2022-08-05T00:37:35.423Z,18.10
2022-08-05T00:40:17.834Z,18.21
2022-08-05T00:42:53.806Z,18.30
2022-08-05T00:45:37.846Z,18.34
2022-08-05T00:48:07.995Z,18.40
2022-08-05T00:50:34.886Z,18.43
2022-08-05T00:53:02.194Z,18.45
2022-08-05T00:55:33.992Z,18.50
2022-08-05T00:58:15.671Z,18.58
2022-08-05T01:00:46.744Z,18.68
2022-08-05T01:03:23.149Z,18.69
2022-08-05T01:05:51.442Z,18.72
2022-08-05T01:08:30.768Z,18.67
2022-08-05T01:11:36.906Z,18.64
2022-08-05T01:14:15.976Z,18.59
2022-08-05T01:16:57.265Z,18.60
2022-08-05T01:19:30.381Z,18.58
2022-08-05T01:22:34.424Z,18.60
2022-08-05T01:25:02.089Z,18.57
2022-08-05T01:27:58.331Z,18.53
2022-08-05T01:30:33.717Z,18.51
2022-08-05T01:33:06.064Z,18.43
2022-08-05T01:35:50.658Z,18.37
2022-08-05T01:38:26.927Z,18.26
2022-08-05T01:40:58.914Z,18.18
2022-08-05T01:43:28.016Z,18.14
2022-08-05T01:45:56.389Z,18.06
2022-08-05T01:48:26.906Z,17.97
2022-08-05T01:50:56.776Z,18.00
2022-08-05T01:53:54.500Z,17.97
2022-08-05T01:56:14.175Z,17.92
2022-08-05T01:59:06.546Z,17.79
2022-08-05T02:01:38.732Z,17.70
2022-08-05T02:04:08.985Z,17.63
2022-08-05T02:06:39.031Z,17.59
2022-08-05T02:09:06.760Z,17.50
2022-08-05T02:11:48.168Z,17.45
2022-08-05T02:14:33.875Z,17.39
2022-08-05T02:18:28.136Z,17.37
2022-08-05T02:20:22.180Z,17.34
2022-08-05T02:22:58.228Z,17.30
2022-08-05T02:25:33.244Z,17.32
2022-08-05T02:28:04.309Z,17.50
2022-08-05T02:30:51.739Z,17.57
2022-08-05T02:33:24.403Z,17.59
2022-08-05T02:36:04.465Z,17.57
2022-08-05T02:38:35.521Z,17.63
2022-08-05T02:41:06.356Z,17.68
2022-08-05T02:44:02.390Z,17.74
2022-08-05T02:46:30.229Z,17.82
2022-08-05T02:48:57.647Z,17.85
2022-08-05T02:51:28.482Z,17.86
2022-08-05T02:54:36.394Z,18.00
2022-08-05T02:57:00.802Z,18.04
2022-08-05T02:59:29.589Z,17.97
2022-08-05T03:02:17.863Z,17.93
2022-08-05T03:04:45.681Z,17.82
2022-08-05T03:07:40.620Z,17.73
2022-08-05T03:09:59.692Z,17.63
2022-08-05T03:12:32.969Z,17.61
2022-08-05T03:14:59.697Z,17.60
2022-08-05T03:17:26.773Z,17.56
2022-08-05T03:19:53.865Z,17.56
2022-08-05T03:22:32.266Z,17.51
2022-08-05T03:25:11.517Z,17.59
2022-08-05T03:27:59.770Z,17.51
2022-08-05T03:30:34.190Z,17.49
2022-08-05T03:33:02.945Z,17.52
2022-08-05T03:35:30.162Z,17.68
2022-08-05T03:38:00.927Z,17.79
2022-08-05T03:40:32.796Z,17.62
2022-08-05T03:43:59.219Z,17.65
2022-08-05T03:45:57.234Z,17.68
2022-08-05T03:48:29.674Z,17.61
2022-08-05T03:52:38.087Z,17.53
2022-08-05T03:55:51.034Z,17.50
2022-08-05T03:56:49.917Z,17.41
2022-08-05T03:59:20.490Z,17.33
2022-08-05T04:01:50.837Z,17.31
2022-08-05T04:04:45.957Z,17.23
2022-08-05T04:07:15.327Z,17.22
2022-08-05T04:09:53.483Z,17.17
2022-08-05T04:12:24.554Z,17.12
2022-08-05T04:14:53.198Z,17.14
2022-08-05T04:17:36.489Z,17.25
2022-08-05T04:20:25.944Z,17.28
2022-08-05T04:22:56.906Z,17.31
2022-08-05T04:25:56.577Z,17.32
2022-08-05T04:28:20.554Z,17.26
2022-08-05T04:30:58.929Z,17.37
2022-08-05T04:34:17.569Z,17.40
2022-08-05T04:36:49.706Z,17.21
2022-08-05T04:39:06.739Z,17.15
2022-08-05T04:41:37.631Z,17.13
2022-08-05T04:44:33.303Z,17.09
2022-08-05T04:47:20.574Z,17.11
2022-08-05T04:50:02.876Z,17.09
2022-08-05T04:52:39.886Z,17.08
2022-08-05T04:55:14.535Z,17.15
2022-08-05T04:57:47.881Z,17.22
2022-08-05T05:00:25.918Z,17.34
2022-08-05T05:02:52.567Z,17.35
2022-08-05T05:05:28.247Z,17.50
2022-08-05T05:08:30.262Z,17.67
2022-08-05T05:11:07.483Z,17.69
2022-08-05T05:13:43.393Z,17.69
2022-08-05T05:16:19.758Z,17.69
2022-08-05T05:19:18.536Z,17.68
2022-08-05T05:21:44.671Z,17.65
2022-08-05T05:24:23.058Z,17.68
2022-08-05T05:27:18.662Z,17.74
2022-08-05T05:30:04.152Z,17.76
2022-08-05T05:32:35.350Z,18.09
2022-08-05T05:35:19.806Z,18.96
2022-08-05T05:38:04.073Z,20.50
2022-08-05T05:41:40.777Z,21.64
2022-08-05T05:43:57.215Z,24.10
2022-08-05T05:46:38.707Z,26.16
2022-08-05T05:49:22.450Z,27.72
2022-08-05T05:51:53.427Z,28.87
2022-08-05T05:54:21.126Z,29.18
2022-08-05T05:56:47.998Z,29.88
2022-08-05T05:59:28.747Z,30.77
2022-08-05T06:02:05.324Z,31.12
2022-08-05T06:04:38.618Z,31.69
2022-08-05T06:07:07.431Z,32.03
2022-08-05T06:10:02.669Z,31.98
2022-08-05T06:12:36.877Z,32.06
2022-08-05T06:16:29.971Z,32.27
2022-08-05T06:18:02.852Z,32.15
2022-08-05T06:20:29.704Z,32.32
2022-08-05T06:23:21.281Z,32.02
2022-08-05T06:26:20.771Z,31.58
2022-08-05T06:29:42.802Z,31.82
2022-08-05T06:31:42.830Z,32.59
2022-08-05T06:34:15.854Z,33.39
2022-08-05T06:36:57.150Z,34.06
2022-08-05T06:39:27.795Z,33.12
2022-08-05T06:42:00.222Z,29.99
2022-08-05T06:44:31.456Z,28.12
2022-08-05T06:46:58.062Z,26.11
2022-08-05T06:50:00.375Z,26.65
2022-08-05T06:52:36.952Z,29.31
2022-08-05T06:55:02.454Z,30.69
2022-08-05T06:58:03.916Z,30.86
2022-08-05T07:00:22.218Z,31.41
2022-08-05T07:02:53.726Z,30.43
2022-08-05T07:05:24.606Z,31.57
2022-08-05T07:07:58.400Z,32.19
2022-08-05T07:10:32.398Z,32.23
2022-08-05T07:12:59.263Z,33.20
2022-08-05T07:15:34.586Z,34.50
2022-08-05T07:18:14.625Z,34.55
2022-08-05T07:20:46.890Z,33.58
2022-08-05T07:23:26.367Z,33.88
2022-08-05T07:25:55.407Z,34.62
2022-08-05T07:28:23.266Z,34.82
2022-08-05T07:30:52.748Z,34.50
2022-08-05T07:33:35.189Z,33.03
2022-08-05T07:36:20.138Z,31.57
2022-08-05T07:38:47.797Z,33.17
2022-08-05T07:42:14.783Z,33.76
2022-08-05T07:44:18.513Z,34.74
2022-08-05T07:46:48.278Z,34.82
2022-08-05T07:49:15.332Z,33.20
2022-08-05T07:51:53.138Z,29.95
2022-08-05T07:54:26.637Z,27.85
2022-08-05T07:57:01.913Z,27.93
2022-08-05T07:59:41.606Z,30.38
2022-08-05T08:02:16.470Z,32.21
2022-08-05T08:04:48.638Z,33.88
2022-08-05T08:07:16.275Z,33.38
2022-08-05T08:09:44.598Z,31.20
2022-08-05T08:12:48.878Z,28.76
2022-08-05T08:15:02.267Z,27.66
2022-08-05T08:17:30.477Z,31.20
2022-08-05T08:20:43.784Z,33.54
2022-08-05T08:22:47.878Z,29.99
2022-08-05T08:25:27.119Z,27.02
2022-08-05T08:28:18.661Z,27.91
2022-08-05T08:30:58.071Z,30.87
2022-08-05T08:33:29.786Z,32.11
2022-08-05T08:36:40.105Z,31.42
2022-08-05T08:38:53.842Z,33.47
2022-08-05T08:41:26.321Z,35.20
2022-08-05T08:45:17.094Z,33.26
2022-08-05T08:47:47.534Z,34.45
2022-08-05T08:50:23.166Z,35.37
2022-08-05T08:53:08.221Z,35.21
2022-08-05T08:56:04.146Z,32.64
2022-08-05T08:58:43.415Z,33.02
2022-08-05T09:01:24.119Z,34.85
2022-08-05T09:04:01.483Z,35.95
2022-08-05T09:06:36.344Z,35.96
2022-08-05T09:09:03.139Z,34.43
2022-08-05T09:11:52.456Z,35.01
2022-08-05T09:14:58.425Z,35.26
2022-08-05T09:17:09.446Z,33.44
2022-08-05T09:20:01.571Z,34.38
2022-08-05T09:22:31.375Z,34.93
2022-08-05T09:25:13.755Z,34.44
2022-08-05T09:28:03.934Z,35.07
2022-08-05T09:30:34.102Z,35.99
2022-08-05T09:33:04.978Z,36.81
2022-08-05T09:35:31.558Z,36.94
2022-08-05T09:38:16.366Z,36.96
2022-08-05T09:40:52.585Z,37.33
2022-08-05T09:43:41.239Z,34.94
2022-08-05T09:46:28.306Z,35.68
2022-08-05T09:49:08.348Z,34.52
2022-08-05T09:51:43.133Z,34.62
2022-08-05T09:54:09.590Z,36.13
2022-08-05T09:56:37.974Z,36.77
2022-08-05T09:59:04.347Z,35.81
2022-08-05T10:01:32.849Z,35.57
2022-08-05T10:04:11.963Z,35.44
2022-08-05T10:06:58.862Z,31.88
2022-08-05T10:09:28.103Z,31.92
2022-08-05T10:12:30.801Z,33.03
2022-08-05T10:14:54.394Z,36.06
2022-08-05T10:17:37.444Z,35.74
2022-08-05T10:20:10.897Z,35.18
2022-08-05T10:22:42.821Z,32.75
2022-08-05T10:25:15.448Z,29.96
2022-08-05T10:28:13.612Z,30.53
2022-08-05T10:32:46.767Z,30.27
2022-08-05T10:33:17.248Z,32.25
2022-08-05T10:35:48.617Z,31.30
2022-08-05T10:38:33.054Z,30.13
2022-08-05T10:41:27.981Z,30.80
2022-08-05T10:44:16.049Z,32.31
2022-08-05T10:46:50.575Z,33.04
2022-08-05T10:49:18.181Z,32.48
2022-08-05T10:51:59.838Z,31.81
2022-08-05T10:55:01.781Z,32.58
2022-08-05T10:57:30.834Z,30.77
2022-08-05T11:00:35.757Z,28.71
2022-08-05T11:03:23.023Z,28.09
2022-08-05T11:06:16.184Z,27.33
2022-08-05T11:09:16.903Z,26.65
2022-08-05T11:11:52.403Z,27.44
2022-08-05T11:14:57.570Z,26.52
2022-08-05T11:17:59.135Z,25.78
2022-08-05T11:20:32.235Z,24.93
2022-08-05T11:23:02.195Z,26.16
2022-08-05T11:26:05.015Z,26.72
2022-08-05T11:28:23.627Z,26.60
2022-08-05T11:30:56.033Z,24.70
2022-08-05T11:33:46.041Z,23.89
2022-08-05T11:36:15.649Z,24.13
2022-08-05T11:39:01.714Z,24.85
2022-08-05T11:41:54.674Z,25.13
2022-08-05T11:44:21.519Z,25.73
2022-08-05T11:47:11.148Z,24.92
2022-08-05T11:49:42.784Z,25.52
2022-08-05T11:52:11.954Z,26.89
2022-08-05T11:54:40.323Z,26.59
2022-08-05T11:57:08.288Z,25.56
2022-08-05T11:59:51.226Z,24.57
2022-08-05T12:02:23.904Z,25.22
2022-08-05T12:04:59.625Z,24.71
2022-08-05T12:08:03.490Z,23.65
2022-08-05T12:10:19.492Z,23.83
2022-08-05T12:12:58.463Z,24.23
2022-08-05T12:15:33.266Z,24.64
2022-08-05T12:18:10.688Z,24.18
2022-08-05T12:20:38.568Z,24.46
2022-08-05T12:23:42.869Z,23.76
2022-08-05T12:25:58.217Z,23.29
2022-08-05T12:29:09.810Z,23.95
2022-08-05T12:31:33.504Z,24.63
2022-08-05T12:34:20.301Z,24.08
2022-08-05T12:37:00.550Z,23.73
2022-08-05T12:39:38.687Z,23.81
2022-08-05T12:45:01.035Z,24.02
2022-08-05T12:47:36.778Z,24.16
2022-08-05T12:50:14.673Z,23.88
2022-08-05T12:52:44.812Z,23.53
2022-08-05T12:55:17.973Z,23.21
2022-08-05T12:58:50.633Z,22.75
2022-08-05T13:02:00.763Z,21.71
2022-08-05T13:03:32.339Z,22.16
2022-08-05T13:06:01.517Z,22.31
2022-08-05T13:08:32.428Z,21.69
2022-08-05T13:11:00.745Z,21.67
2022-08-05T13:14:06.602Z,22.17
2022-08-05T13:16:17.057Z,22.43
2022-08-05T13:18:57.923Z,22.54
2022-08-05T13:21:28.489Z,22.64
2022-08-05T13:24:06.105Z,23.14
2022-08-05T13:26:35.272Z,22.97
2022-08-05T13:29:01.749Z,23.43
2022-08-05T13:31:33.740Z,23.50
2022-08-05T13:34:23.040Z,24.14
2022-08-05T13:36:53.270Z,23.86
2022-08-05T13:39:24.554Z,24.41
2022-08-05T13:42:06.495Z,23.95
2022-08-05T13:44:34.784Z,23.63
2022-08-05T13:47:08.524Z,23.27
2022-08-05T13:49:36.132Z,23.08
2022-08-05T13:52:13.157Z,23.27
2022-08-05T13:54:40.182Z,23.37
2022-08-05T13:57:07.494Z,23.74
2022-08-05T13:59:37.764Z,23.66
2022-08-05T14:02:26.605Z,23.70
2022-08-05T14:04:56.209Z,23.79
2022-08-05T14:08:00.645Z,23.84
2022-08-05T14:10:18.938Z,23.57
2022-08-05T14:12:54.785Z,23.79
2022-08-05T14:16:06.815Z,23.20
2022-08-05T14:18:15.254Z,23.39
2022-08-05T14:20:49.002Z,23.16
2022-08-05T14:23:25.161Z,23.13
2022-08-05T14:25:58.896Z,22.85
2022-08-05T14:28:30.080Z,22.95
2022-08-05T14:30:58.003Z,23.12
2022-08-05T14:33:24.530Z,23.50
2022-08-05T14:35:54.331Z,23.93
2022-08-05T14:38:32.789Z,23.30
2022-08-05T14:41:07.254Z,22.74
2022-08-05T14:43:59.106Z,23.02
2022-08-05T14:46:28.954Z,23.87
2022-08-05T14:49:06.208Z,24.00
2022-08-05T14:51:34.742Z,24.05
2022-08-05T14:54:26.274Z,23.68
2022-08-05T14:56:48.274Z,23.66
2022-08-05T14:59:15.425Z,23.34
2022-08-05T15:01:48.012Z,23.15
2022-08-05T15:04:20.441Z,22.93
2022-08-05T15:06:49.328Z,22.99
2022-08-05T15:09:50.561Z,23.54
2022-08-05T15:12:04.504Z,23.76
2022-08-05T15:14:34.803Z,23.90
2022-08-05T15:17:04.645Z,23.12
2022-08-05T15:19:33.012Z,23.25
2022-08-05T15:22:00.295Z,23.11
2022-08-05T15:24:28.263Z,21.90
2022-08-05T15:26:55.925Z,21.74
2022-08-05T15:29:23.954Z,22.25
2022-08-05T15:31:57.327Z,22.52
2022-08-05T15:34:33.120Z,22.10
2022-08-05T15:37:06.112Z,21.27
2022-08-05T15:41:02.519Z,21.09
2022-08-05T15:42:50.457Z,20.79
2022-08-05T15:45:07.303Z,20.66
2022-08-05T15:47:36.388Z,20.92
2022-08-05T15:50:03.905Z,21.25
2022-08-05T15:52:52.669Z,21.07
2022-08-05T15:55:17.094Z,21.39
2022-08-05T15:57:43.861Z,21.67
2022-08-05T16:00:12.200Z,22.00
2022-08-05T16:02:43.488Z,22.18
2022-08-05T16:05:11.274Z,22.30
2022-08-05T16:07:38.259Z,22.06
2022-08-05T16:10:12.934Z,22.21
2022-08-05T16:12:39.774Z,22.71
2022-08-05T16:15:06.471Z,22.53
2022-08-05T16:17:36.117Z,22.10
2022-08-05T16:20:02.608Z,22.10
2022-08-05T16:22:34.137Z,22.12
2022-08-05T16:25:09.567Z,21.62
2022-08-05T16:27:59.910Z,22.15
2022-08-05T16:30:26.722Z,21.61
2022-08-05T16:32:55.890Z,21.52
2022-08-05T16:35:28.457Z,22.13
2022-08-05T16:38:10.587Z,22.18
2022-08-05T16:40:52.284Z,22.27
2022-08-05T16:43:27.902Z,22.63
2022-08-05T16:46:05.783Z,22.77
2022-08-05T16:48:39.210Z,22.60
2022-08-05T16:51:08.969Z,22.46
2022-08-05T16:54:02.377Z,22.36
2022-08-05T16:56:23.846Z,22.26
2022-08-05T16:58:50.748Z,21.43
2022-08-05T17:01:18.736Z,21.02
2022-08-05T17:03:48.509Z,20.77
2022-08-05T17:06:16.385Z,20.90
2022-08-05T17:08:53.178Z,21.10
2022-08-05T17:11:23.474Z,21.28
2022-08-05T17:13:50.651Z,20.56
2022-08-05T17:16:32.727Z,20.58
2022-08-05T17:19:00.529Z,20.69
2022-08-05T17:21:35.490Z,20.59
2022-08-05T17:24:30.084Z,20.24
2022-08-05T17:26:54.299Z,20.39
2022-08-05T17:29:22.497Z,20.36
2022-08-05T17:31:58.960Z,20.12
2022-08-05T17:34:29.803Z,19.94
2022-08-05T17:36:58.489Z,19.95
2022-08-05T17:39:33.139Z,19.54
2022-08-05T17:42:17.557Z,19.33
2022-08-05T17:44:50.144Z,19.36
2022-08-05T17:47:17.440Z,19.61
2022-08-05T17:49:59.900Z,19.40
2022-08-05T17:52:34.139Z,19.28
2022-08-05T17:55:01.284Z,19.18
2022-08-05T17:57:29.664Z,18.96
2022-08-05T18:00:03.333Z,18.69
2022-08-05T18:02:33.013Z,18.57
2022-08-05T18:04:59.474Z,18.57
2022-08-05T18:07:40.870Z,18.54
2022-08-05T18:10:11.009Z,18.57
2022-08-05T18:12:38.360Z,18.38
2022-08-05T18:15:05.806Z,18.47
2022-08-05T18:18:01.167Z,18.43
2022-08-05T18:20:18.900Z,18.43
2022-08-05T18:22:53.797Z,18.41
2022-08-05T18:25:21.285Z,18.31
2022-08-05T18:27:52.249Z,18.17
2022-08-05T18:30:19.570Z,18.06
2022-08-05T18:32:53.708Z,17.92
2022-08-05T18:35:49.397Z,17.96
2022-08-05T18:38:16.577Z,17.96
2022-08-05T18:41:55.981Z,17.79
2022-08-05T18:43:38.088Z,17.78
2022-08-05T18:46:09.943Z,17.70
2022-08-05T18:48:36.719Z,17.62
2022-08-05T18:52:06.808Z,17.47
2022-08-05T18:53:55.086Z,17.44
2022-08-05T18:56:25.165Z,17.47
2022-08-05T18:58:53.484Z,17.44
2022-08-05T19:01:21.450Z,17.47
2022-08-05T19:04:07.808Z,17.27
2022-08-05T19:06:45.329Z,17.37
2022-08-05T19:09:12.279Z,17.35
2022-08-05T19:11:59.296Z,17.30
2022-08-05T19:14:53.288Z,17.15
2022-08-05T19:17:11.870Z,17.08
2022-08-05T19:19:46.572Z,17.00
2022-08-05T19:22:13.714Z,16.99
2022-08-05T19:24:54.334Z,16.88
2022-08-05T19:27:23.941Z,16.87
2022-08-05T19:29:50.646Z,16.82
2022-08-05T19:32:17.205Z,16.74
2022-08-05T19:34:55.289Z,16.74
2022-08-05T19:37:35.026Z,16.74
2022-08-05T19:40:10.842Z,16.66
2022-08-05T19:42:38.715Z,16.67
2022-08-05T19:45:06.555Z,16.60
2022-08-05T19:47:37.396Z,16.61
2022-08-05T19:50:07.887Z,16.58
2022-08-05T19:52:37.160Z,16.56
2022-08-05T19:55:08.731Z,16.51
2022-08-05T19:58:14.643Z,16.46
2022-08-05T20:00:37.563Z,16.30
2022-08-05T20:03:05.406Z,16.23
2022-08-05T20:05:49.765Z,16.25
2022-08-05T20:08:16.969Z,16.17
2022-08-05T20:10:43.449Z,16.18
2022-08-05T20:13:09.994Z,16.18
2022-08-05T20:15:52.620Z,16.05
2022-08-05T20:18:33.994Z,15.99
2022-08-05T20:21:04.737Z,15.94
2022-08-05T20:23:44.632Z,15.98
2022-08-05T20:26:19.953Z,15.90
2022-08-05T20:28:47.885Z,15.96
2022-08-05T20:31:16.661Z,15.94
2022-08-05T20:33:44.705Z,15.88
2022-08-05T20:36:11.864Z,15.84
2022-08-05T20:38:54.673Z,15.78
2022-08-05T20:41:27.005Z,15.77
2022-08-05T20:44:17.483Z,15.73
2022-08-05T20:46:46.572Z,15.61
2022-08-05T20:49:13.898Z,15.64
2022-08-05T20:51:40.307Z,15.69
2022-08-05T20:54:06.884Z,15.65
2022-08-05T20:56:42.430Z,15.65
2022-08-05T20:59:13.949Z,15.62
2022-08-05T21:01:42.487Z,15.62
2022-08-05T21:04:10.446Z,15.59
2022-08-05T21:06:45.735Z,15.51
2022-08-05T21:09:14.311Z,15.55
2022-08-05T21:12:09.094Z,15.63
2022-08-05T21:14:28.627Z,15.50
2022-08-05T21:17:01.632Z,15.49
2022-08-05T21:19:29.680Z,15.40
2022-08-05T21:22:14.469Z,15.43
2022-08-05T21:24:40.983Z,15.38
2022-08-05T21:27:09.160Z,15.35
2022-08-05T21:29:40.801Z,15.30
2022-08-05T21:32:07.588Z,15.29
2022-08-05T21:34:35.584Z,15.21
2022-08-05T21:37:02.304Z,15.20
2022-08-05T21:39:29.218Z,15.25
2022-08-05T21:42:01.586Z,15.16
2022-08-05T21:44:28.882Z,15.16
2022-08-05T21:46:57.978Z,15.12
2022-08-05T21:49:48.313Z,15.02
2022-08-05T21:52:15.742Z,15.01
2022-08-05T21:54:48.346Z,15.03
2022-08-05T21:57:31.450Z,15.03
2022-08-05T22:00:05.546Z,15.01
2022-08-05T22:02:33.110Z,14.90
2022-08-05T22:05:00.035Z,14.85
2022-08-05T22:07:40.217Z,14.87
2022-08-05T22:10:14.608Z,14.85
2022-08-05T22:12:44.821Z,14.85
2022-08-05T22:16:04.734Z,14.87
2022-08-05T22:18:05.573Z,14.89
2022-08-05T22:20:32.171Z,14.88
2022-08-05T22:22:58.986Z,14.89
2022-08-05T22:26:10.745Z,14.89
2022-08-05T22:28:12.249Z,14.83
2022-08-05T22:30:55.542Z,14.84
2022-08-05T22:33:55.845Z,14.77
2022-08-05T22:36:15.432Z,14.72
2022-08-05T22:38:48.238Z,14.77
2022-08-05T22:41:15.874Z,14.67
2022-08-05T22:44:02.329Z,14.64
2022-08-05T22:46:28.772Z,14.55
2022-08-05T22:48:56.449Z,14.55
2022-08-05T22:52:05.909Z,14.60
2022-08-05T22:54:09.691Z,14.61
2022-08-05T22:56:36.220Z,14.62
2022-08-05T22:59:44.292Z,14.60
2022-08-05T23:02:05.581Z,14.45
2022-08-05T23:04:33.980Z,14.37
2022-08-05T23:07:00.608Z,14.21
2022-08-05T23:09:52.574Z,14.24
2022-08-05T23:12:13.651Z,14.08
2022-08-05T23:14:40.136Z,14.01
2022-08-05T23:17:10.411Z,13.89
2022-08-05T23:19:46.634Z,13.86
2022-08-05T23:22:23.631Z,13.81
2022-08-05T23:24:53.981Z,13.84
2022-08-05T23:27:20.637Z,13.81
2022-08-05T23:29:49.313Z,13.79
2022-08-05T23:32:17.145Z,13.70
2022-08-05T23:34:49.878Z,13.63
2022-08-05T23:37:17.580Z,13.64
2022-08-05T23:39:53.782Z,13.54
2022-08-05T23:42:23.476Z,13.46
2022-08-05T23:44:55.477Z,13.41
2022-08-05T23:47:21.958Z,13.42
2022-08-05T23:49:52.150Z,13.49
2022-08-05T23:52:25.195Z,13.46
2022-08-05T23:54:53.522Z,13.38
2022-08-05T23:57:19.989Z,13.31
